sensor_id;sensor_type;location;lat;lon;timestamp;temperature;humidity
3312;DHT22;1668;49.648;8.570;2023-05-16T00:00:58;14.70;1.00
3312;DHT22;1668;49.648;8.570;2023-05-16T00:03:27;14.70;14.90
3312;DHT22;1668;49.648;8.570;2023-05-16T00:05:55;14.70;90.30
3312;DHT22;1668;49.648;8.570;2023-05-16T00:08:22;14.70;93.80
3312;DHT22;1668;49.648;8.570;2023-05-16T00:10:49;14.60;99.90
3312;DHT22;1668;49.648;8.570;2023-05-16T00:13:16;14.60;99.90
3312;DHT22;1668;49.648;8.570;2023-05-16T00:15:46;14.50;99.90
3312;DHT22;1668;49.648;8.570;2023-05-16T00:18:13;14.50;99.90
3312;DHT22;1668;49.648;8.570;2023-05-16T00:20:42;14.50;99.90
3312;DHT22;1668;49.648;8.570;2023-05-16T00:23:09;14.40;1.00
3312;DHT22;1668;49.648;8.570;2023-05-16T00:25:37;14.40;1.00
3312;DHT22;1668;49.648;8.570;2023-05-16T00:28:04;14.40;1.00
3312;DHT22;1668;49.648;8.570;2023-05-16T00:30:31;14.30;1.00
3312;DHT22;1668;49.648;8.570;2023-05-16T00:32:57;14.30;99.90
3312;DHT22;1668;49.648;8.570;2023-05-16T00:35:24;14.30;99.90
3312;DHT22;1668;49.648;8.570;2023-05-16T00:37:52;14.30;99.90
3312;DHT22;1668;49.648;8.570;2023-05-16T00:40:19;14.20;99.90
3312;DHT22;1668;49.648;8.570;2023-05-16T00:42:46;14.20;1.00
3312;DHT22;1668;49.648;8.570;2023-05-16T00:45:13;14.20;1.00
3312;DHT22;1668;49.648;8.570;2023-05-16T00:47:40;14.20;1.00
3312;DHT22;1668;49.648;8.570;2023-05-16T00:50:08;14.20;1.00
3312;DHT22;1668;49.648;8.570;2023-05-16T00:52:35;14.20;2.70
3312;DHT22;1668;49.648;8.570;2023-05-16T00:55:04;14.20;99.90
3312;DHT22;1668;49.648;8.570;2023-05-16T00:57:31;14.10;99.90
3312;DHT22;1668;49.648;8.570;2023-05-16T00:59:58;14.00;99.90
3312;DHT22;1668;49.648;8.570;2023-05-16T01:02:26;14.00;1.00
3312;DHT22;1668;49.648;8.570;2023-05-16T01:04:54;14.00;1.00
3312;DHT22;1668;49.648;8.570;2023-05-16T01:07:21;14.00;1.00
3312;DHT22;1668;49.648;8.570;2023-05-16T01:09:48;14.00;1.00
3312;DHT22;1668;49.648;8.570;2023-05-16T01:12:20;13.90;69.80
3312;DHT22;1668;49.648;8.570;2023-05-16T01:14:55;13.90;99.90
3312;DHT22;1668;49.648;8.570;2023-05-16T01:17:30;13.90;99.90
3312;DHT22;1668;49.648;8.570;2023-05-16T01:20:07;13.90;99.90
3312;DHT22;1668;49.648;8.570;2023-05-16T01:22:49;13.90;99.90
3312;DHT22;1668;49.648;8.570;2023-05-16T01:25:26;13.80;1.00
3312;DHT22;1668;49.648;8.570;2023-05-16T01:27:58;13.80;1.00
3312;DHT22;1668;49.648;8.570;2023-05-16T01:30:25;13.80;1.00
3312;DHT22;1668;49.648;8.570;2023-05-16T01:32:52;13.80;1.00
3312;DHT22;1668;49.648;8.570;2023-05-16T01:35:19;13.80;1.00
3312;DHT22;1668;49.648;8.570;2023-05-16T01:37:51;13.80;1.00
3312;DHT22;1668;49.648;8.570;2023-05-16T01:40:24;13.80;1.00
3312;DHT22;1668;49.648;8.570;2023-05-16T01:42:54;13.70;1.00
3312;DHT22;1668;49.648;8.570;2023-05-16T01:45:25;13.70;27.00
3312;DHT22;1668;49.648;8.570;2023-05-16T01:47:59;13.70;99.90
3312;DHT22;1668;49.648;8.570;2023-05-16T01:50:31;13.80;99.90
3312;DHT22;1668;49.648;8.570;2023-05-16T01:53:05;13.70;99.90
3312;DHT22;1668;49.648;8.570;2023-05-16T01:55:41;13.70;99.90
3312;DHT22;1668;49.648;8.570;2023-05-16T01:58:09;13.70;99.90
3312;DHT22;1668;49.648;8.570;2023-05-16T02:00:38;13.70;1.00
3312;DHT22;1668;49.648;8.570;2023-05-16T02:03:05;13.70;99.90
3312;DHT22;1668;49.648;8.570;2023-05-16T02:05:32;13.70;1.00
3312;DHT22;1668;49.648;8.570;2023-05-16T02:07:59;13.60;1.00
3312;DHT22;1668;49.648;8.570;2023-05-16T02:10:26;13.60;1.00
3312;DHT22;1668;49.648;8.570;2023-05-16T02:12:53;13.60;1.00
3312;DHT22;1668;49.648;8.570;2023-05-16T02:15:20;13.60;1.00
3312;DHT22;1668;49.648;8.570;2023-05-16T02:17:48;13.60;1.00
3312;DHT22;1668;49.648;8.570;2023-05-16T02:20:15;13.50;8.40
3312;DHT22;1668;49.648;8.570;2023-05-16T02:22:41;13.50;73.60
3312;DHT22;1668;49.648;8.570;2023-05-16T02:25:12;13.50;86.70
3312;DHT22;1668;49.648;8.570;2023-05-16T02:27:39;13.50;99.90
3312;DHT22;1668;49.648;8.570;2023-05-16T02:30:07;13.40;1.00
3312;DHT22;1668;49.648;8.570;2023-05-16T02:32:34;13.40;1.00
3312;DHT22;1668;49.648;8.570;2023-05-16T02:35:02;13.40;1.00
3312;DHT22;1668;49.648;8.570;2023-05-16T02:37:29;13.30;1.00
3312;DHT22;1668;49.648;8.570;2023-05-16T02:39:56;13.30;1.00
3312;DHT22;1668;49.648;8.570;2023-05-16T02:42:25;13.20;33.70
3312;DHT22;1668;49.648;8.570;2023-05-16T02:44:52;13.20;99.90
3312;DHT22;1668;49.648;8.570;2023-05-16T02:47:19;13.20;99.90
3312;DHT22;1668;49.648;8.570;2023-05-16T02:49:46;13.20;99.90
3312;DHT22;1668;49.648;8.570;2023-05-16T02:52:14;13.20;99.90
3312;DHT22;1668;49.648;8.570;2023-05-16T02:54:40;13.10;1.00
3312;DHT22;1668;49.648;8.570;2023-05-16T02:57:07;13.10;1.00
3312;DHT22;1668;49.648;8.570;2023-05-16T02:59:34;13.10;1.00
3312;DHT22;1668;49.648;8.570;2023-05-16T03:02:01;13.10;1.00
3312;DHT22;1668;49.648;8.570;2023-05-16T03:04:28;13.00;1.00
3312;DHT22;1668;49.648;8.570;2023-05-16T03:06:55;13.00;1.00
3312;DHT22;1668;49.648;8.570;2023-05-16T03:09:23;12.90;1.00
3312;DHT22;1668;49.648;8.570;2023-05-16T03:11:50;12.90;1.00
3312;DHT22;1668;49.648;8.570;2023-05-16T03:14:16;12.90;1.00
3312;DHT22;1668;49.648;8.570;2023-05-16T03:16:43;12.90;1.00
3312;DHT22;1668;49.648;8.570;2023-05-16T03:19:10;12.80;1.00
3312;DHT22;1668;49.648;8.570;2023-05-16T03:21:38;12.80;1.00
3312;DHT22;1668;49.648;8.570;2023-05-16T03:24:05;12.70;99.90
3312;DHT22;1668;49.648;8.570;2023-05-16T03:26:34;12.70;1.00
3312;DHT22;1668;49.648;8.570;2023-05-16T03:29:00;12.70;1.00
3312;DHT22;1668;49.648;8.570;2023-05-16T03:31:27;12.70;17.40
3312;DHT22;1668;49.648;8.570;2023-05-16T03:33:54;12.60;99.90
3312;DHT22;1668;49.648;8.570;2023-05-16T03:36:21;12.60;99.90
3312;DHT22;1668;49.648;8.570;2023-05-16T03:38:48;12.60;99.90
3312;DHT22;1668;49.648;8.570;2023-05-16T03:41:15;12.50;99.90
3312;DHT22;1668;49.648;8.570;2023-05-16T03:43:43;12.50;99.90
3312;DHT22;1668;49.648;8.570;2023-05-16T03:46:10;12.50;99.90
3312;DHT22;1668;49.648;8.570;2023-05-16T03:48:37;12.40;99.90
3312;DHT22;1668;49.648;8.570;2023-05-16T03:51:04;12.40;99.90
3312;DHT22;1668;49.648;8.570;2023-05-16T03:53:31;12.30;99.90
3312;DHT22;1668;49.648;8.570;2023-05-16T03:55:57;12.30;99.90
3312;DHT22;1668;49.648;8.570;2023-05-16T03:58:24;12.40;99.90
3312;DHT22;1668;49.648;8.570;2023-05-16T04:00:52;12.40;99.90
3312;DHT22;1668;49.648;8.570;2023-05-16T04:03:19;12.40;99.90
3312;DHT22;1668;49.648;8.570;2023-05-16T04:05:52;12.40;99.30
3312;DHT22;1668;49.648;8.570;2023-05-16T04:08:19;12.30;52.60
3312;DHT22;1668;49.648;8.570;2023-05-16T04:10:46;12.30;99.90
3312;DHT22;1668;49.648;8.570;2023-05-16T04:13:13;12.30;94.00
3312;DHT22;1668;49.648;8.570;2023-05-16T04:15:40;12.30;17.50
3312;DHT22;1668;49.648;8.570;2023-05-16T04:18:09;12.30;99.90
3312;DHT22;1668;49.648;8.570;2023-05-16T04:20:36;12.30;99.90
3312;DHT22;1668;49.648;8.570;2023-05-16T04:23:02;12.30;99.90
3312;DHT22;1668;49.648;8.570;2023-05-16T04:25:30;12.20;99.90
3312;DHT22;1668;49.648;8.570;2023-05-16T04:27:57;12.20;99.90
3312;DHT22;1668;49.648;8.570;2023-05-16T04:30:24;12.20;99.90
3312;DHT22;1668;49.648;8.570;2023-05-16T04:32:50;12.20;99.90
3312;DHT22;1668;49.648;8.570;2023-05-16T04:35:19;12.20;99.90
3312;DHT22;1668;49.648;8.570;2023-05-16T04:37:46;12.20;99.90
3312;DHT22;1668;49.648;8.570;2023-05-16T04:40:13;12.20;99.90
3312;DHT22;1668;49.648;8.570;2023-05-16T04:42:40;12.20;99.90
3312;DHT22;1668;49.648;8.570;2023-05-16T04:45:07;12.30;99.90
3312;DHT22;1668;49.648;8.570;2023-05-16T04:47:36;12.30;99.90
3312;DHT22;1668;49.648;8.570;2023-05-16T04:50:03;12.30;53.10
3312;DHT22;1668;49.648;8.570;2023-05-16T04:52:32;12.30;51.40
3312;DHT22;1668;49.648;8.570;2023-05-16T04:54:59;12.30;1.00
3312;DHT22;1668;49.648;8.570;2023-05-16T04:57:26;12.30;1.00
3312;DHT22;1668;49.648;8.570;2023-05-16T04:59:53;12.30;1.00
3312;DHT22;1668;49.648;8.570;2023-05-16T05:02:20;12.30;1.00
3312;DHT22;1668;49.648;8.570;2023-05-16T05:04:46;12.30;71.30
3312;DHT22;1668;49.648;8.570;2023-05-16T05:07:13;12.30;85.60
3312;DHT22;1668;49.648;8.570;2023-05-16T05:09:41;12.30;65.60
3312;DHT22;1668;49.648;8.570;2023-05-16T05:12:10;12.40;99.90
3312;DHT22;1668;49.648;8.570;2023-05-16T05:14:37;12.40;99.90
3312;DHT22;1668;49.648;8.570;2023-05-16T05:17:04;12.40;99.90
3312;DHT22;1668;49.648;8.570;2023-05-16T05:19:31;12.50;42.60
3312;DHT22;1668;49.648;8.570;2023-05-16T05:21:58;12.50;16.80
3312;DHT22;1668;49.648;8.570;2023-05-16T05:24:25;12.40;1.00
3312;DHT22;1668;49.648;8.570;2023-05-16T05:26:53;12.50;99.90
3312;DHT22;1668;49.648;8.570;2023-05-16T05:29:20;12.50;1.00
3312;DHT22;1668;49.648;8.570;2023-05-16T05:31:47;12.50;1.00
3312;DHT22;1668;49.648;8.570;2023-05-16T05:34:13;12.50;1.00
3312;DHT22;1668;49.648;8.570;2023-05-16T05:36:40;12.50;8.20
3312;DHT22;1668;49.648;8.570;2023-05-16T05:39:08;12.50;77.00
3312;DHT22;1668;49.648;8.570;2023-05-16T05:41:35;12.50;75.40
3312;DHT22;1668;49.648;8.570;2023-05-16T05:44:04;12.60;48.70
3312;DHT22;1668;49.648;8.570;2023-05-16T05:46:31;12.60;1.00
3312;DHT22;1668;49.648;8.570;2023-05-16T05:48:59;12.60;99.90
3312;DHT22;1668;49.648;8.570;2023-05-16T05:51:26;12.60;1.00
3312;DHT22;1668;49.648;8.570;2023-05-16T05:53:53;12.60;1.00
3312;DHT22;1668;49.648;8.570;2023-05-16T05:56:20;12.60;1.00
3312;DHT22;1668;49.648;8.570;2023-05-16T05:58:49;12.60;1.00
3312;DHT22;1668;49.648;8.570;2023-05-16T06:01:17;12.70;1.00
3312;DHT22;1668;49.648;8.570;2023-05-16T06:03:45;12.70;1.00
3312;DHT22;1668;49.648;8.570;2023-05-16T06:06:12;12.60;1.00
3312;DHT22;1668;49.648;8.570;2023-05-16T06:08:39;12.60;1.00
3312;DHT22;1668;49.648;8.570;2023-05-16T06:11:06;12.60;99.90
3312;DHT22;1668;49.648;8.570;2023-05-16T06:13:33;12.70;99.90
3312;DHT22;1668;49.648;8.570;2023-05-16T06:16:00;12.70;1.00
3312;DHT22;1668;49.648;8.570;2023-05-16T06:18:28;12.70;1.00
3312;DHT22;1668;49.648;8.570;2023-05-16T06:20:55;12.70;1.00
3312;DHT22;1668;49.648;8.570;2023-05-16T06:23:22;12.70;1.00
3312;DHT22;1668;49.648;8.570;2023-05-16T06:25:50;12.70;1.00
3312;DHT22;1668;49.648;8.570;2023-05-16T06:28:16;12.70;1.00
3312;DHT22;1668;49.648;8.570;2023-05-16T06:30:43;12.70;1.00
3312;DHT22;1668;49.648;8.570;2023-05-16T06:33:12;12.70;1.00
3312;DHT22;1668;49.648;8.570;2023-05-16T06:35:40;12.70;1.00
3312;DHT22;1668;49.648;8.570;2023-05-16T06:38:07;12.80;1.00
3312;DHT22;1668;49.648;8.570;2023-05-16T06:40:34;12.70;1.00
3312;DHT22;1668;49.648;8.570;2023-05-16T06:43:02;12.70;99.90
3312;DHT22;1668;49.648;8.570;2023-05-16T06:45:28;12.70;1.00
3312;DHT22;1668;49.648;8.570;2023-05-16T06:47:55;12.80;1.00
3312;DHT22;1668;49.648;8.570;2023-05-16T06:50:22;12.80;99.90
3312;DHT22;1668;49.648;8.570;2023-05-16T06:52:51;12.80;1.00
3312;DHT22;1668;49.648;8.570;2023-05-16T06:55:17;12.80;1.00
3312;DHT22;1668;49.648;8.570;2023-05-16T06:57:44;12.90;1.00
3312;DHT22;1668;49.648;8.570;2023-05-16T07:00:12;12.90;99.90
3312;DHT22;1668;49.648;8.570;2023-05-16T07:02:39;12.90;99.90
3312;DHT22;1668;49.648;8.570;2023-05-16T07:05:06;12.90;1.00
3312;DHT22;1668;49.648;8.570;2023-05-16T07:07:34;12.90;1.00
3312;DHT22;1668;49.648;8.570;2023-05-16T07:10:02;12.90;99.90
3312;DHT22;1668;49.648;8.570;2023-05-16T07:12:29;12.80;1.00
3312;DHT22;1668;49.648;8.570;2023-05-16T07:14:56;12.70;1.00
3312;DHT22;1668;49.648;8.570;2023-05-16T07:17:23;12.70;70.80
3312;DHT22;1668;49.648;8.570;2023-05-16T07:19:49;12.70;11.50
3312;DHT22;1668;49.648;8.570;2023-05-16T07:22:16;12.60;1.00
3312;DHT22;1668;49.648;8.570;2023-05-16T07:24:43;12.70;99.90
3312;DHT22;1668;49.648;8.570;2023-05-16T07:27:11;12.60;99.90
3312;DHT22;1668;49.648;8.570;2023-05-16T07:29:38;12.50;1.00
3312;DHT22;1668;49.648;8.570;2023-05-16T07:32:05;12.50;41.50
3312;DHT22;1668;49.648;8.570;2023-05-16T07:34:32;12.50;99.90
3312;DHT22;1668;49.648;8.570;2023-05-16T07:36:59;12.40;1.00
3312;DHT22;1668;49.648;8.570;2023-05-16T07:39:26;12.30;1.00
3312;DHT22;1668;49.648;8.570;2023-05-16T07:41:53;12.30;1.00
3312;DHT22;1668;49.648;8.570;2023-05-16T07:44:21;12.30;99.90
3312;DHT22;1668;49.648;8.570;2023-05-16T07:46:47;12.30;99.90
3312;DHT22;1668;49.648;8.570;2023-05-16T07:49:15;12.30;69.00
3312;DHT22;1668;49.648;8.570;2023-05-16T07:51:42;12.30;1.00
3312;DHT22;1668;49.648;8.570;2023-05-16T07:54:08;12.20;1.00
3312;DHT22;1668;49.648;8.570;2023-05-16T07:56:35;12.20;1.00
3312;DHT22;1668;49.648;8.570;2023-05-16T07:59:02;12.20;1.00
3312;DHT22;1668;49.648;8.570;2023-05-16T08:01:31;12.20;99.90
3312;DHT22;1668;49.648;8.570;2023-05-16T08:03:58;12.10;1.00
3312;DHT22;1668;49.648;8.570;2023-05-16T08:06:25;12.20;99.90
3312;DHT22;1668;49.648;8.570;2023-05-16T08:08:52;12.20;99.90
3312;DHT22;1668;49.648;8.570;2023-05-16T08:11:19;12.10;99.90
3312;DHT22;1668;49.648;8.570;2023-05-16T08:13:47;12.20;99.90
3312;DHT22;1668;49.648;8.570;2023-05-16T08:16:13;12.20;99.90
3312;DHT22;1668;49.648;8.570;2023-05-16T08:18:42;12.30;99.90
3312;DHT22;1668;49.648;8.570;2023-05-16T08:21:08;12.20;1.00
3312;DHT22;1668;49.648;8.570;2023-05-16T08:23:35;12.30;99.90
3312;DHT22;1668;49.648;8.570;2023-05-16T08:26:02;12.30;1.00
3312;DHT22;1668;49.648;8.570;2023-05-16T08:28:29;12.30;99.90
3312;DHT22;1668;49.648;8.570;2023-05-16T08:30:56;12.30;1.00
3312;DHT22;1668;49.648;8.570;2023-05-16T08:33:22;12.30;1.00
3312;DHT22;1668;49.648;8.570;2023-05-16T08:35:51;12.40;49.60
3312;DHT22;1668;49.648;8.570;2023-05-16T08:38:18;12.40;99.90
3312;DHT22;1668;49.648;8.570;2023-05-16T08:40:45;12.40;99.90
3312;DHT22;1668;49.648;8.570;2023-05-16T08:43:12;12.50;99.90
3312;DHT22;1668;49.648;8.570;2023-05-16T08:45:39;12.50;1.00
3312;DHT22;1668;49.648;8.570;2023-05-16T08:48:06;12.40;6.90
3312;DHT22;1668;49.648;8.570;2023-05-16T08:50:34;12.50;1.00
3312;DHT22;1668;49.648;8.570;2023-05-16T08:53:05;12.40;99.90
3312;DHT22;1668;49.648;8.570;2023-05-16T08:55:34;12.40;1.00
3312;DHT22;1668;49.648;8.570;2023-05-16T08:58:01;12.40;99.90
3312;DHT22;1668;49.648;8.570;2023-05-16T09:00:28;12.40;1.00
3312;DHT22;1668;49.648;8.570;2023-05-16T09:02:56;12.40;95.40
3312;DHT22;1668;49.648;8.570;2023-05-16T09:05:24;12.40;1.00
3312;DHT22;1668;49.648;8.570;2023-05-16T09:07:52;12.40;99.90
3312;DHT22;1668;49.648;8.570;2023-05-16T09:10:20;12.30;99.90
3312;DHT22;1668;49.648;8.570;2023-05-16T09:12:47;12.30;58.80
3312;DHT22;1668;49.648;8.570;2023-05-16T09:15:17;12.20;99.90
3312;DHT22;1668;49.648;8.570;2023-05-16T09:17:45;12.20;76.60
3312;DHT22;1668;49.648;8.570;2023-05-16T09:20:14;12.10;1.00
3312;DHT22;1668;49.648;8.570;2023-05-16T09:22:50;12.10;99.90
3312;DHT22;1668;49.648;8.570;2023-05-16T09:25:19;12.10;99.90
3312;DHT22;1668;49.648;8.570;2023-05-16T09:27:47;12.10;72.20
3312;DHT22;1668;49.648;8.570;2023-05-16T09:30:14;12.20;1.00
3312;DHT22;1668;49.648;8.570;2023-05-16T09:32:45;12.30;99.90
3312;DHT22;1668;49.648;8.570;2023-05-16T09:35:14;12.30;99.90
3312;DHT22;1668;49.648;8.570;2023-05-16T09:37:43;12.40;99.90
3312;DHT22;1668;49.648;8.570;2023-05-16T09:40:11;12.50;1.00
3312;DHT22;1668;49.648;8.570;2023-05-16T09:42:40;12.50;1.00
3312;DHT22;1668;49.648;8.570;2023-05-16T09:45:11;12.40;1.00
3312;DHT22;1668;49.648;8.570;2023-05-16T09:47:39;12.40;1.00
3312;DHT22;1668;49.648;8.570;2023-05-16T09:50:12;12.30;1.00
3312;DHT22;1668;49.648;8.570;2023-05-16T09:52:39;12.30;1.00
3312;DHT22;1668;49.648;8.570;2023-05-16T09:55:06;12.40;95.50
3312;DHT22;1668;49.648;8.570;2023-05-16T09:57:36;12.40;1.00
3312;DHT22;1668;49.648;8.570;2023-05-16T10:00:06;12.50;99.90
3312;DHT22;1668;49.648;8.570;2023-05-16T10:02:36;12.50;1.00
3312;DHT22;1668;49.648;8.570;2023-05-16T10:05:04;12.50;2.50
3312;DHT22;1668;49.648;8.570;2023-05-16T10:07:31;12.50;99.90
3312;DHT22;1668;49.648;8.570;2023-05-16T10:10:00;12.60;1.00
3312;DHT22;1668;49.648;8.570;2023-05-16T10:12:29;12.60;1.00
3312;DHT22;1668;49.648;8.570;2023-05-16T10:14:58;12.60;1.00
3312;DHT22;1668;49.648;8.570;2023-05-16T10:17:30;12.60;1.00
3312;DHT22;1668;49.648;8.570;2023-05-16T10:19:59;12.70;1.00
3312;DHT22;1668;49.648;8.570;2023-05-16T10:22:28;12.70;99.90
3312;DHT22;1668;49.648;8.570;2023-05-16T10:25:02;12.70;1.00
3312;DHT22;1668;49.648;8.570;2023-05-16T10:27:30;12.70;1.00
3312;DHT22;1668;49.648;8.570;2023-05-16T10:29:57;12.70;1.00
3312;DHT22;1668;49.648;8.570;2023-05-16T10:32:26;12.70;1.00
3312;DHT22;1668;49.648;8.570;2023-05-16T10:34:54;12.80;1.00
3312;DHT22;1668;49.648;8.570;2023-05-16T10:37:22;12.70;1.00
3312;DHT22;1668;49.648;8.570;2023-05-16T10:39:49;12.70;1.00
3312;DHT22;1668;49.648;8.570;2023-05-16T10:42:16;12.70;1.00
3312;DHT22;1668;49.648;8.570;2023-05-16T10:44:44;12.70;1.00
3312;DHT22;1668;49.648;8.570;2023-05-16T10:47:11;12.70;1.00
3312;DHT22;1668;49.648;8.570;2023-05-16T10:49:40;12.60;1.00
3312;DHT22;1668;49.648;8.570;2023-05-16T10:52:08;12.70;1.00
3312;DHT22;1668;49.648;8.570;2023-05-16T10:54:36;12.70;99.90
3312;DHT22;1668;49.648;8.570;2023-05-16T10:57:05;12.80;99.90
3312;DHT22;1668;49.648;8.570;2023-05-16T10:59:40;12.80;99.90
3312;DHT22;1668;49.648;8.570;2023-05-16T11:02:24;12.80;99.90
3312;DHT22;1668;49.648;8.570;2023-05-16T11:04:55;12.80;99.90
3312;DHT22;1668;49.648;8.570;2023-05-16T11:07:24;12.80;99.90
3312;DHT22;1668;49.648;8.570;2023-05-16T11:10:03;12.70;99.90
3312;DHT22;1668;49.648;8.570;2023-05-16T11:12:41;12.80;99.90
3312;DHT22;1668;49.648;8.570;2023-05-16T11:15:23;12.80;99.90
3312;DHT22;1668;49.648;8.570;2023-05-16T11:17:50;12.80;99.90
3312;DHT22;1668;49.648;8.570;2023-05-16T11:20:32;12.80;99.90
3312;DHT22;1668;49.648;8.570;2023-05-16T11:23:23;12.80;1.00
3312;DHT22;1668;49.648;8.570;2023-05-16T11:25:55;12.70;99.90
3312;DHT22;1668;49.648;8.570;2023-05-16T11:28:24;12.70;99.90
3312;DHT22;1668;49.648;8.570;2023-05-16T11:30:52;12.80;1.00
3312;DHT22;1668;49.648;8.570;2023-05-16T11:33:21;12.80;99.90
3312;DHT22;1668;49.648;8.570;2023-05-16T11:36:05;12.90;99.90
3312;DHT22;1668;49.648;8.570;2023-05-16T11:38:33;12.90;24.20
3312;DHT22;1668;49.648;8.570;2023-05-16T11:41:04;12.90;92.50
3312;DHT22;1668;49.648;8.570;2023-05-16T11:43:37;12.80;1.00
3312;DHT22;1668;49.648;8.570;2023-05-16T11:46:04;12.70;1.00
3312;DHT22;1668;49.648;8.570;2023-05-16T11:48:32;12.70;1.00
3312;DHT22;1668;49.648;8.570;2023-05-16T11:50:59;12.70;1.00
3312;DHT22;1668;49.648;8.570;2023-05-16T11:53:27;12.70;1.00
3312;DHT22;1668;49.648;8.570;2023-05-16T11:55:55;12.70;1.00
3312;DHT22;1668;49.648;8.570;2023-05-16T11:58:24;12.80;1.00
3312;DHT22;1668;49.648;8.570;2023-05-16T12:00:51;12.80;1.00
3312;DHT22;1668;49.648;8.570;2023-05-16T12:03:18;12.90;99.90
3312;DHT22;1668;49.648;8.570;2023-05-16T12:05:52;12.90;99.90
3312;DHT22;1668;49.648;8.570;2023-05-16T12:08:20;12.90;99.90
3312;DHT22;1668;49.648;8.570;2023-05-16T12:10:51;13.00;99.90
3312;DHT22;1668;49.648;8.570;2023-05-16T12:13:20;13.10;99.90
3312;DHT22;1668;49.648;8.570;2023-05-16T12:15:47;13.20;99.90
3312;DHT22;1668;49.648;8.570;2023-05-16T12:18:14;13.30;78.50
3312;DHT22;1668;49.648;8.570;2023-05-16T12:20:42;13.40;42.30
3312;DHT22;1668;49.648;8.570;2023-05-16T12:23:10;13.40;30.00
3312;DHT22;1668;49.648;8.570;2023-05-16T12:25:38;13.40;1.00
3312;DHT22;1668;49.648;8.570;2023-05-16T12:28:11;13.50;1.20
3312;DHT22;1668;49.648;8.570;2023-05-16T12:30:40;13.60;1.00
3312;DHT22;1668;49.648;8.570;2023-05-16T12:33:08;13.50;1.00
3312;DHT22;1668;49.648;8.570;2023-05-16T12:35:38;13.50;1.00
3312;DHT22;1668;49.648;8.570;2023-05-16T12:38:06;13.50;1.00
3312;DHT22;1668;49.648;8.570;2023-05-16T12:40:33;13.50;1.00
3312;DHT22;1668;49.648;8.570;2023-05-16T12:43:02;13.70;1.00
3312;DHT22;1668;49.648;8.570;2023-05-16T12:45:31;13.80;1.00
3312;DHT22;1668;49.648;8.570;2023-05-16T12:48:03;13.90;1.00
3312;DHT22;1668;49.648;8.570;2023-05-16T12:50:32;13.90;1.00
3312;DHT22;1668;49.648;8.570;2023-05-16T12:52:59;13.90;1.00
3312;DHT22;1668;49.648;8.570;2023-05-16T12:55:26;13.90;1.00
3312;DHT22;1668;49.648;8.570;2023-05-16T12:57:54;13.90;1.00
3312;DHT22;1668;49.648;8.570;2023-05-16T13:00:21;14.00;1.00
3312;DHT22;1668;49.648;8.570;2023-05-16T13:02:49;14.00;1.00
3312;DHT22;1668;49.648;8.570;2023-05-16T13:05:16;14.00;1.00
3312;DHT22;1668;49.648;8.570;2023-05-16T13:07:43;14.10;1.00
3312;DHT22;1668;49.648;8.570;2023-05-16T13:10:10;14.30;1.00
3312;DHT22;1668;49.648;8.570;2023-05-16T13:12:38;14.50;1.00
3312;DHT22;1668;49.648;8.570;2023-05-16T13:15:06;14.60;1.00
3312;DHT22;1668;49.648;8.570;2023-05-16T13:17:33;14.80;1.00
3312;DHT22;1668;49.648;8.570;2023-05-16T13:20:01;14.80;1.00
3312;DHT22;1668;49.648;8.570;2023-05-16T13:22:31;14.90;1.00
3312;DHT22;1668;49.648;8.570;2023-05-16T13:24:58;15.00;1.00
3312;DHT22;1668;49.648;8.570;2023-05-16T13:27:25;15.20;1.00
3312;DHT22;1668;49.648;8.570;2023-05-16T13:29:51;15.30;1.00
3312;DHT22;1668;49.648;8.570;2023-05-16T13:32:18;15.40;1.00
3312;DHT22;1668;49.648;8.570;2023-05-16T13:34:45;15.70;1.00
3312;DHT22;1668;49.648;8.570;2023-05-16T13:37:13;16.00;1.00
3312;DHT22;1668;49.648;8.570;2023-05-16T13:39:40;16.40;1.00
3312;DHT22;1668;49.648;8.570;2023-05-16T13:42:07;16.40;1.00
3312;DHT22;1668;49.648;8.570;2023-05-16T13:44:34;16.70;1.00
3312;DHT22;1668;49.648;8.570;2023-05-16T13:47:01;17.00;1.00
3312;DHT22;1668;49.648;8.570;2023-05-16T13:49:28;17.30;1.00
3312;DHT22;1668;49.648;8.570;2023-05-16T13:51:55;17.40;1.00
3312;DHT22;1668;49.648;8.570;2023-05-16T13:54:24;17.50;1.00
3312;DHT22;1668;49.648;8.570;2023-05-16T13:56:50;17.70;1.00
3312;DHT22;1668;49.648;8.570;2023-05-16T13:59:17;17.90;1.00
3312;DHT22;1668;49.648;8.570;2023-05-16T14:01:44;18.00;1.00
3312;DHT22;1668;49.648;8.570;2023-05-16T14:04:11;17.90;1.00
3312;DHT22;1668;49.648;8.570;2023-05-16T14:06:38;17.60;1.00
3312;DHT22;1668;49.648;8.570;2023-05-16T14:09:04;17.60;1.00
3312;DHT22;1668;49.648;8.570;2023-05-16T14:11:34;17.80;1.00
3312;DHT22;1668;49.648;8.570;2023-05-16T14:14:00;17.90;1.00
3312;DHT22;1668;49.648;8.570;2023-05-16T14:16:27;18.00;1.00
3312;DHT22;1668;49.648;8.570;2023-05-16T14:18:55;18.10;1.00
3312;DHT22;1668;49.648;8.570;2023-05-16T14:21:22;18.30;1.00
3312;DHT22;1668;49.648;8.570;2023-05-16T14:23:49;18.50;1.00
3312;DHT22;1668;49.648;8.570;2023-05-16T14:26:16;18.40;99.90
3312;DHT22;1668;49.648;8.570;2023-05-16T14:28:48;18.70;1.00
3312;DHT22;1668;49.648;8.570;2023-05-16T14:31:15;18.90;99.90
3312;DHT22;1668;49.648;8.570;2023-05-16T14:33:42;19.20;99.90
3312;DHT22;1668;49.648;8.570;2023-05-16T14:36:09;18.90;99.90
3312;DHT22;1668;49.648;8.570;2023-05-16T14:38:35;18.90;99.90
3312;DHT22;1668;49.648;8.570;2023-05-16T14:41:02;19.00;99.90
3312;DHT22;1668;49.648;8.570;2023-05-16T14:43:29;18.70;99.90
3312;DHT22;1668;49.648;8.570;2023-05-16T14:45:57;18.30;99.90
3312;DHT22;1668;49.648;8.570;2023-05-16T14:48:24;18.10;99.90
3312;DHT22;1668;49.648;8.570;2023-05-16T14:50:51;17.90;99.90
3312;DHT22;1668;49.648;8.570;2023-05-16T14:53:17;17.90;99.90
3312;DHT22;1668;49.648;8.570;2023-05-16T14:55:46;18.30;99.90
3312;DHT22;1668;49.648;8.570;2023-05-16T14:58:13;18.50;99.90
3312;DHT22;1668;49.648;8.570;2023-05-16T15:00:40;18.80;99.90
3312;DHT22;1668;49.648;8.570;2023-05-16T15:03:08;18.90;99.90
3312;DHT22;1668;49.648;8.570;2023-05-16T15:05:34;18.50;99.90
3312;DHT22;1668;49.648;8.570;2023-05-16T15:08:01;18.10;99.90
3312;DHT22;1668;49.648;8.570;2023-05-16T15:10:29;18.00;99.90
3312;DHT22;1668;49.648;8.570;2023-05-16T15:13:04;18.00;99.90
3312;DHT22;1668;49.648;8.570;2023-05-16T15:15:31;17.80;99.90
3312;DHT22;1668;49.648;8.570;2023-05-16T15:17:59;17.70;99.90
3312;DHT22;1668;49.648;8.570;2023-05-16T15:20:27;17.60;99.90
3312;DHT22;1668;49.648;8.570;2023-05-16T15:22:54;17.90;99.90
3312;DHT22;1668;49.648;8.570;2023-05-16T15:25:21;18.20;99.90
3312;DHT22;1668;49.648;8.570;2023-05-16T15:27:47;18.30;99.90
3312;DHT22;1668;49.648;8.570;2023-05-16T15:30:14;18.30;99.90
3312;DHT22;1668;49.648;8.570;2023-05-16T15:32:43;18.20;99.90
3312;DHT22;1668;49.648;8.570;2023-05-16T15:35:10;18.10;99.90
3312;DHT22;1668;49.648;8.570;2023-05-16T15:37:39;17.80;99.90
3312;DHT22;1668;49.648;8.570;2023-05-16T15:40:06;17.70;99.90
3312;DHT22;1668;49.648;8.570;2023-05-16T15:42:34;18.00;99.90
3312;DHT22;1668;49.648;8.570;2023-05-16T15:45:02;18.40;99.90
3312;DHT22;1668;49.648;8.570;2023-05-16T15:47:29;18.70;99.90
3312;DHT22;1668;49.648;8.570;2023-05-16T15:49:55;18.60;99.90
3312;DHT22;1668;49.648;8.570;2023-05-16T15:52:22;18.60;99.90
3312;DHT22;1668;49.648;8.570;2023-05-16T15:54:52;18.70;99.90
3312;DHT22;1668;49.648;8.570;2023-05-16T15:57:19;18.50;99.90
3312;DHT22;1668;49.648;8.570;2023-05-16T15:59:46;18.80;99.90
3312;DHT22;1668;49.648;8.570;2023-05-16T16:02:12;18.50;99.90
3312;DHT22;1668;49.648;8.570;2023-05-16T16:04:39;18.40;99.90
3312;DHT22;1668;49.648;8.570;2023-05-16T16:07:06;18.40;99.90
3312;DHT22;1668;49.648;8.570;2023-05-16T16:09:33;18.80;99.90
3312;DHT22;1668;49.648;8.570;2023-05-16T16:12:01;19.00;99.90
3312;DHT22;1668;49.648;8.570;2023-05-16T16:14:28;18.80;99.90